Time;durP1;ratioP1;P1;durP2;ratioP2;P2;SDS_P1;SDS_P2;PMS_P1;PMS_P2;Temp;Humidity;BMP_temperature;BMP_pressure;BME280_temperature;BME280_humidity;BME280_pressure;Samples;Min_cycle;Max_cycle;Signal;HPM_P1;HPM_P2
2022/08/18 00:02:19;;;;;;;10.88;5.53;;;23.90;90.30;;;;;;5003316;28;20026;-77
2022/08/18 00:04:45;;;;;;;10.88;5.57;;;23.90;90.10;;;;;;5004889;28;20034;-79
2022/08/18 00:07:15;;;;;;;15.15;6.03;;;23.90;89.40;;;;;;5022465;28;20022;-78
2022/08/18 00:09:41;;;;;;;11.35;5.32;;;23.90;89.20;;;;;;5002669;28;20045;-77
2022/08/18 00:12:19;;;;;;;13.50;5.90;;;23.90;88.70;;;;;;5016925;28;20085;-77
2022/08/18 00:14:46;;;;;;;8.38;5.15;;;23.90;88.50;;;;;;5023636;28;20037;-77
2022/08/18 00:17:13;;;;;;;11.20;5.35;;;23.80;88.40;;;;;;5011249;28;20033;-77
2022/08/18 00:19:39;;;;;;;10.75;5.40;;;23.80;88.50;;;;;;5028400;28;20045;-77
2022/08/18 00:22:05;;;;;;;14.23;5.72;;;23.70;88.70;;;;;;5029866;28;20006;-79
2022/08/18 00:24:31;;;;;;;11.73;5.43;;;23.70;88.10;;;;;;5013797;28;20040;-78
2022/08/18 00:26:57;;;;;;;9.05;5.35;;;23.60;87.70;;;;;;5022942;28;20037;-80
2022/08/18 00:29:23;;;;;;;12.68;5.05;;;23.60;88.80;;;;;;5022188;28;20026;-79
2022/08/18 00:31:50;;;;;;;14.38;5.25;;;23.60;89.10;;;;;;5026451;28;20095;-77
2022/08/18 00:34:16;;;;;;;12.02;5.82;;;23.50;88.90;;;;;;5027496;28;20034;-78
2022/08/18 00:36:42;;;;;;;11.85;5.60;;;23.50;88.40;;;;;;5007177;28;20025;-78
2022/08/18 00:39:08;;;;;;;8.85;5.40;;;23.40;88.20;;;;;;5023160;28;20028;-79
2022/08/18 00:41:34;;;;;;;8.32;5.30;;;23.40;88.90;;;;;;5022318;28;20053;-78
2022/08/18 00:44:03;;;;;;;8.65;5.18;;;23.30;88.80;;;;;;5027510;28;20045;-77
2022/08/18 00:46:34;;;;;;;13.35;5.88;;;23.20;89.30;;;;;;5008616;28;20080;-80
2022/08/18 00:49:01;;;;;;;15.65;5.70;;;23.20;89.60;;;;;;5029188;28;20057;-77
2022/08/18 00:51:36;;;;;;;13.50;5.63;;;23.20;89.90;;;;;;5030257;28;20076;-78
2022/08/18 00:54:15;;;;;;;9.68;5.50;;;23.10;90.10;;;;;;5029510;28;20045;-77
2022/08/18 00:56:50;;;;;;;10.60;5.45;;;23.10;90.40;;;;;;5027906;28;20113;-77
2022/08/18 00:59:46;;;;;;;14.25;5.80;;;23.10;90.60;;;;;;5026842;28;20494;-77
2022/08/18 01:02:24;;;;;;;9.00;5.30;;;23.10;90.70;;;;;;5023747;28;20029;-77
2022/08/18 01:04:58;;;;;;;14.27;5.82;;;23.00;90.60;;;;;;5024330;28;20042;-77
2022/08/18 01:07:46;;;;;;;7.90;5.07;;;23.00;90.50;;;;;;5024273;28;20053;-79
2022/08/18 01:10:17;;;;;;;9.80;5.88;;;23.00;90.60;;;;;;5024758;28;20033;-78
2022/08/18 01:12:44;;;;;;;14.10;5.63;;;22.90;90.70;;;;;;5025560;28;20093;-76
2022/08/18 01:15:12;;;;;;;17.02;6.25;;;22.90;91.00;;;;;;5022674;28;20037;-77
2022/08/18 01:23:21;;;;;;;11.70;5.85;;;22.80;91.30;;;;;;5018528;28;20024;-77
2022/08/18 01:26:05;;;;;;;12.43;5.93;;;22.80;91.50;;;;;;5020021;28;20036;-79
2022/08/18 01:28:32;;;;;;;9.35;5.47;;;22.90;91.70;;;;;;4987583;28;20034;-78
2022/08/18 01:30:59;;;;;;;9.18;5.40;;;22.80;91.80;;;;;;5001175;28;20022;-80
2022/08/18 01:33:31;;;;;;;10.35;5.28;;;22.80;92.20;;;;;;5018358;28;20122;-80
2022/08/18 01:36:02;;;;;;;10.18;6.05;;;22.70;92.60;;;;;;5020806;28;20034;-79
2022/08/18 01:38:30;;;;;;;8.52;5.32;;;22.70;92.90;;;;;;5020054;28;20026;-79
2022/08/18 01:40:57;;;;;;;9.80;5.55;;;22.70;93.20;;;;;;5003905;28;20057;-80
2022/08/18 01:43:23;;;;;;;11.38;5.97;;;22.70;93.30;;;;;;5022307;28;20033;-79
2022/08/18 01:45:49;;;;;;;15.32;6.05;;;22.60;93.50;;;;;;5003286;28;20026;-79
2022/08/18 01:48:16;;;;;;;10.32;5.60;;;22.60;93.80;;;;;;5002551;28;20049;-79
2022/08/18 01:50:43;;;;;;;7.82;5.68;;;22.60;94.00;;;;;;5005137;28;20437;-78
2022/08/18 01:53:10;;;;;;;10.82;6.00;;;22.60;94.40;;;;;;5025127;28;20026;-79
2022/08/18 01:55:38;;;;;;;12.35;6.05;;;22.50;94.50;;;;;;5027119;28;20022;-79
2022/08/18 01:58:06;;;;;;;11.05;6.18;;;22.60;94.80;;;;;;5005073;28;20030;-79
2022/08/18 02:00:32;;;;;;;9.80;5.32;;;22.60;95.00;;;;;;5023879;28;20029;-77
2022/08/18 02:03:00;;;;;;;10.23;5.45;;;22.50;94.90;;;;;;5022021;28;20026;-79
2022/08/18 02:05:39;;;;;;;16.85;6.30;;;22.50;95.20;;;;;;5005765;28;20048;-78
2022/08/18 02:08:05;;;;;;;11.68;5.82;;;22.60;95.40;;;;;;5010423;28;20041;-78
2022/08/18 02:10:31;;;;;;;9.25;6.20;;;22.60;95.70;;;;;;5031656;28;20033;-77
2022/08/18 02:12:57;;;;;;;13.77;6.68;;;22.60;95.60;;;;;;5015854;28;20076;-78
2022/08/18 02:15:23;;;;;;;13.73;5.63;;;22.60;95.60;;;;;;5030322;28;20025;-79
2022/08/18 02:17:50;;;;;;;8.25;5.38;;;22.70;95.80;;;;;;5006729;28;20046;-78
2022/08/18 02:20:18;;;;;;;9.55;5.65;;;22.60;96.00;;;;;;5023841;28;20117;-78
2022/08/18 02:22:45;;;;;;;8.73;6.10;;;22.60;96.10;;;;;;5029228;28;20026;-78
2022/08/18 02:25:12;;;;;;;10.23;5.82;;;22.60;96.50;;;;;;5029538;28;20034;-79
2022/08/18 02:27:38;;;;;;;9.15;5.93;;;22.60;96.80;;;;;;5028643;28;20045;-78
2022/08/18 02:30:08;;;;;;;10.30;6.28;;;22.60;96.50;;;;;;5025059;28;20026;-77
2022/08/18 02:32:34;;;;;;;9.02;5.70;;;22.50;96.50;;;;;;5026566;28;20034;-79
2022/08/18 02:35:00;;;;;;;8.27;5.82;;;22.50;97.00;;;;;;5028877;28;20044;-77
2022/08/18 02:37:25;;;;;;;8.38;5.97;;;22.40;97.30;;;;;;5011776;28;20057;-78
2022/08/18 02:39:51;;;;;;;10.27;6.13;;;22.40;97.20;;;;;;5010268;28;20025;-79
2022/08/18 02:42:17;;;;;;;13.35;6.55;;;22.40;97.30;;;;;;5020508;28;20486;-78
2022/08/18 02:44:43;;;;;;;10.77;5.82;;;22.40;97.20;;;;;;5019989;28;20085;-79
2022/08/18 02:47:09;;;;;;;9.07;5.78;;;22.30;97.20;;;;;;5021239;28;20049;-79
2022/08/18 02:49:35;;;;;;;8.75;6.05;;;22.30;97.30;;;;;;5022581;28;20478;-76
2022/08/18 02:52:02;;;;;;;11.70;6.57;;;22.30;97.40;;;;;;5021829;28;20041;-79
2022/08/18 02:54:27;;;;;;;11.02;6.57;;;22.30;97.40;;;;;;5004551;28;20076;-79
2022/08/18 02:56:53;;;;;;;8.23;6.13;;;22.20;97.30;;;;;;5022895;28;20026;-78
2022/08/18 02:59:26;;;;;;;11.80;5.78;;;22.30;97.40;;;;;;5007568;28;20026;-78
2022/08/18 03:01:54;;;;;;;12.57;5.75;;;22.20;97.50;;;;;;5026996;28;20033;-78
2022/08/18 03:04:28;;;;;;;13.10;6.00;;;22.20;97.40;;;;;;5025973;28;20101;-76
2022/08/18 03:06:56;;;;;;;10.43;5.73;;;22.10;97.40;;;;;;5026030;28;20040;-77
2022/08/18 03:09:22;;;;;;;9.90;6.07;;;22.10;97.60;;;;;;5004791;28;20069;-77
2022/08/18 03:11:47;;;;;;;11.82;5.72;;;22.00;97.90;;;;;;5022475;28;20021;-76
2022/08/18 03:14:15;;;;;;;9.10;6.18;;;22.00;98.00;;;;;;5021710;28;20037;-79
2022/08/18 03:16:43;;;;;;;11.68;5.60;;;22.00;98.50;;;;;;5025898;28;20026;-77
2022/08/18 03:19:09;;;;;;;8.27;5.90;;;22.00;98.60;;;;;;5026884;28;20014;-77
2022/08/18 03:21:36;;;;;;;8.65;6.28;;;22.00;98.90;;;;;;5011307;28;20062;-77
2022/08/18 03:24:04;;;;;;;12.63;6.35;;;22.10;98.60;;;;;;5005381;28;20041;-78
2022/08/18 03:26:30;;;;;;;11.75;6.63;;;22.20;98.50;;;;;;5006014;28;20088;-78
2022/08/18 03:28:58;;;;;;;13.75;6.03;;;22.20;98.30;;;;;;5029903;28;20470;-79
2022/08/18 03:31:27;;;;;;;11.82;6.22;;;22.10;98.40;;;;;;5026560;28;20042;-79
2022/08/18 03:33:57;;;;;;;11.80;6.85;;;22.10;98.80;;;;;;5027638;28;20094;-79
2022/08/18 03:36:27;;;;;;;10.75;6.47;;;22.10;99.30;;;;;;4991181;28;20129;-77
2022/08/18 03:38:53;;;;;;;10.13;6.25;;;22.00;99.30;;;;;;5024042;28;20033;-77
2022/08/18 03:41:21;;;;;;;18.95;7.05;;;21.90;99.40;;;;;;5009089;28;20022;-77
2022/08/18 03:43:48;;;;;;;12.85;6.30;;;21.90;99.50;;;;;;5029545;28;20026;-78
2022/08/18 03:46:15;;;;;;;9.48;6.55;;;21.80;99.80;;;;;;5026536;28;20044;-78
2022/08/18 03:48:42;;;;;;;14.02;6.97;;;21.80;99.90;;;;;;5023952;28;20026;-77
2022/08/18 03:51:32;;;;;;;14.27;7.13;;;21.80;99.90;;;;;;5023847;28;20112;-78
2022/08/18 03:54:01;;;;;;;19.73;6.78;;;21.90;99.90;;;;;;5024665;28;20026;-78
2022/08/18 03:56:32;;;;;;;11.25;7.18;;;21.90;99.90;;;;;;5021249;28;20382;-78
2022/08/18 03:59:02;;;;;;;12.55;6.82;;;21.90;99.90;;;;;;5019526;28;20022;-77
2022/08/18 04:01:31;;;;;;;11.60;6.70;;;21.90;99.90;;;;;;5023073;28;20033;-77
2022/08/18 04:04:01;;;;;;;10.82;6.57;;;21.90;99.90;;;;;;5025497;28;20046;-76
2022/08/18 04:06:30;;;;;;;15.55;7.30;;;22.00;99.90;;;;;;5024850;28;20025;-77
2022/08/18 04:08:59;;;;;;;12.55;7.10;;;21.90;99.90;;;;;;5025498;28;20041;-77
2022/08/18 04:11:27;;;;;;;12.73;7.18;;;21.90;99.90;;;;;;5025855;28;20515;-77
2022/08/18 04:13:56;;;;;;;11.10;6.93;;;22.00;99.90;;;;;;5022623;28;20026;-77
2022/08/18 04:16:24;;;;;;;11.93;6.43;;;21.90;99.90;;;;;;5024649;28;20052;-78
2022/08/18 04:18:50;;;;;;;12.73;7.32;;;22.00;99.90;;;;;;5024353;28;20081;-77
2022/08/18 04:21:15;;;;;;;16.52;6.80;;;22.00;99.90;;;;;;5025453;28;20033;-78
2022/08/18 04:23:41;;;;;;;14.00;7.28;;;22.00;99.90;;;;;;5026908;28;20595;-77
2022/08/18 04:26:09;;;;;;;10.57;6.47;;;22.10;99.90;;;;;;5027662;28;20500;-77
2022/08/18 04:28:35;;;;;;;15.75;7.25;;;22.10;99.90;;;;;;5028467;28;20042;-77
2022/08/18 04:31:10;;;;;;;13.45;6.85;;;22.20;99.90;;;;;;5005625;28;20028;-77
2022/08/18 04:33:37;;;;;;;13.88;6.97;;;22.20;99.90;;;;;;5019894;28;20037;-78
2022/08/18 04:36:12;;;;;;;11.55;6.95;;;22.30;99.90;;;;;;5020574;28;20060;-78
2022/08/18 04:38:41;;;;;;;12.73;7.10;;;22.40;99.90;;;;;;5022434;28;20037;-78
2022/08/18 04:41:07;;;;;;;10.38;7.07;;;22.40;99.90;;;;;;5027761;28;20029;-78
2022/08/18 04:43:33;;;;;;;12.27;6.80;;;22.50;99.90;;;;;;5025493;28;20082;-78
2022/08/18 04:46:00;;;;;;;13.10;7.40;;;22.60;99.90;;;;;;5027334;28;20034;-77
2022/08/18 04:48:35;;;;;;;16.00;7.20;;;22.70;99.90;;;;;;5026572;28;20044;-77
2022/08/18 04:51:16;;;;;;;14.82;7.15;;;22.80;99.90;;;;;;5027839;28;20034;-78
2022/08/18 04:53:45;;;;;;;15.90;7.22;;;22.80;99.90;;;;;;5032439;28;20014;-78
2022/08/18 04:56:24;;;;;;;15.05;7.55;;;22.90;99.90;;;;;;5032450;28;20061;-79
2022/08/18 04:58:55;;;;;;;14.52;7.75;;;22.90;99.90;;;;;;5016441;28;20036;-77
2022/08/18 05:01:28;;;;;;;9.82;7.30;;;23.00;99.90;;;;;;5032627;28;20043;-80
2022/08/18 05:03:56;;;;;;;11.30;6.90;;;23.10;99.90;;;;;;5004284;28;20068;-79
2022/08/18 05:06:24;;;;;;;12.77;6.70;;;23.20;99.90;;;;;;5023512;28;20046;-80
2022/08/18 05:08:55;;;;;;;18.52;7.50;;;23.30;99.80;;;;;;5022118;28;20053;-78
2022/08/18 05:11:23;;;;;;;10.90;7.20;;;23.30;99.70;;;;;;5021692;28;20583;-78
2022/08/18 05:13:51;;;;;;;11.13;8.00;;;23.50;99.50;;;;;;5019128;28;20026;-79
2022/08/18 05:16:17;;;;;;;17.50;7.63;;;23.60;99.40;;;;;;5016880;28;20034;-77
2022/08/18 05:18:43;;;;;;;18.10;7.43;;;23.50;99.00;;;;;;5016139;28;20022;-78
2022/08/18 05:21:12;;;;;;;23.10;7.78;;;23.40;99.30;;;;;;5058569;23;20056;-84
2022/08/18 05:23:43;;;;;;;14.98;8.20;;;23.40;99.50;;;;;;5052737;28;20115;-83
2022/08/18 05:26:10;;;;;;;16.58;8.38;;;23.30;99.50;;;;;;5054302;28;20056;-86
2022/08/18 05:28:36;;;;;;;21.58;8.20;;;23.40;99.50;;;;;;5037816;28;20044;-85
2022/08/18 05:31:11;;;;;;;15.75;8.50;;;23.50;99.20;;;;;;5056653;28;20049;-81
2022/08/18 05:33:39;;;;;;;12.40;7.82;;;23.60;99.00;;;;;;5004534;28;20022;-83
2022/08/18 05:36:10;;;;;;;13.65;8.20;;;23.70;98.80;;;;;;5017903;28;20045;-82
2022/08/18 05:38:55;;;;;;;12.43;7.05;;;23.90;98.40;;;;;;5037807;28;20026;-84
2022/08/18 05:41:28;;;;;;;17.33;8.30;;;24.00;98.20;;;;;;5038679;28;20014;-83
2022/08/18 05:43:57;;;;;;;11.13;7.50;;;24.20;97.90;;;;;;5040748;28;20026;-82
2022/08/18 05:46:39;;;;;;;13.05;7.18;;;24.10;97.90;;;;;;5038031;28;20018;-83
2022/08/18 05:49:05;;;;;;;11.30;7.47;;;24.00;98.10;;;;;;5036390;28;20069;-83
2022/08/18 05:51:41;;;;;;;12.98;7.78;;;24.10;98.30;;;;;;5034394;28;20025;-87
2022/08/18 05:56:55;;;;;;;18.60;7.50;;;24.20;98.20;;;;;;5040012;28;20041;-84
2022/08/18 05:59:30;;;;;;;18.52;7.60;;;24.30;98.00;;;;;;5037339;28;20029;-82
2022/08/18 06:02:20;;;;;;;16.23;6.75;;;24.30;98.10;;;;;;5022840;28;20029;-81
2022/08/18 06:04:52;;;;;;;16.45;6.97;;;24.40;98.00;;;;;;5004030;28;20097;-83
2022/08/18 06:07:30;;;;;;;14.45;6.40;;;24.40;97.90;;;;;;5038766;28;20040;-82
2022/08/18 06:09:56;;;;;;;9.02;6.50;;;24.40;97.80;;;;;;5035100;28;20018;-82
2022/08/18 06:12:35;;;;;;;12.75;7.22;;;24.40;97.70;;;;;;5022486;28;20021;-82
2022/08/18 06:15:13;;;;;;;12.38;6.85;;;24.50;97.90;;;;;;5039679;28;20026;-84
2022/08/18 06:18:16;;;;;;;13.68;7.68;;;24.70;97.90;;;;;;5039650;28;20018;-84
2022/08/18 06:21:00;;;;;;;13.60;6.45;;;25.00;97.40;;;;;;5039408;28;20032;-84
2022/08/18 06:23:40;;;;;;;15.05;7.03;;;25.30;96.90;;;;;;5022453;28;20037;-81
2022/08/18 06:26:18;;;;;;;18.20;6.85;;;25.50;96.40;;;;;;5039441;28;20026;-82
2022/08/18 06:29:03;;;;;;;13.35;6.47;;;25.80;96.00;;;;;;5025147;28;20034;-83
2022/08/18 06:31:44;;;;;;;13.60;6.88;;;25.90;95.50;;;;;;5002938;28;20034;-84
2022/08/18 06:34:30;;;;;;;14.00;6.20;;;26.00;95.20;;;;;;5019577;28;20062;-85
2022/08/18 06:37:16;;;;;;;14.40;7.50;;;26.10;95.00;;;;;;5005118;28;20078;-84
2022/08/18 06:39:45;;;;;;;15.68;6.55;;;26.40;94.70;;;;;;5019229;28;20023;-84
2022/08/18 06:42:10;;;;;;;9.55;6.55;;;26.60;94.40;;;;;;5020014;28;20011;-84
2022/08/18 06:44:44;;;;;;;11.93;7.00;;;26.80;94.00;;;;;;5023486;28;20089;-83
2022/08/18 06:47:18;;;;;;;11.35;6.70;;;26.70;93.90;;;;;;5022434;28;20018;-84
2022/08/18 06:50:01;;;;;;;10.40;6.43;;;26.90;93.60;;;;;;5021702;28;20093;-83
2022/08/18 06:52:38;;;;;;;15.48;6.45;;;27.00;93.20;;;;;;5020037;28;20058;-84
2022/08/18 06:55:14;;;;;;;14.50;6.20;;;27.20;92.80;;;;;;5013404;28;20142;-83
2022/08/18 06:58:06;;;;;;;12.35;6.13;;;27.40;92.40;;;;;;5040505;28;20029;-83
2022/08/18 07:00:36;;;;;;;17.33;6.38;;;27.50;92.00;;;;;;5023657;28;20025;-84
2022/08/18 07:03:38;;;;;;;14.23;6.40;;;27.30;92.00;;;;;;5047617;28;20036;-84
2022/08/18 07:06:05;;;;;;;11.15;6.30;;;27.10;92.20;;;;;;5006481;28;20053;-84
2022/08/18 07:08:34;;;;;;;11.60;6.38;;;27.10;92.20;;;;;;4989372;28;20025;-84
2022/08/18 07:11:19;;;;;;;10.73;6.03;;;27.20;92.00;;;;;;4990432;28;20526;-85
2022/08/18 07:13:46;;;;;;;;;;;27.10;91.30;;;;;;5041705;28;20048;-85
2022/08/18 07:16:19;;;;;;;13.23;5.80;;;27.00;91.30;;;;;;5044739;28;19908;-83
2022/08/18 07:18:45;;;;;;;15.23;5.75;;;26.90;91.30;;;;;;5044525;28;20465;-85
2022/08/18 07:21:27;;;;;;;9.85;5.70;;;27.00;91.10;;;;;;5027367;28;20026;-87
2022/08/18 07:24:14;;;;;;;12.10;5.95;;;26.90;91.30;;;;;;5030856;28;20094;-85
2022/08/18 07:27:01;;;;;;;9.57;5.63;;;27.00;91.10;;;;;;5036310;28;20037;-86
2022/08/18 07:29:33;;;;;;;9.27;6.45;;;27.00;90.80;;;;;;5043285;28;20061;-86
2022/08/18 07:32:16;;;;;;;11.90;6.10;;;27.00;90.80;;;;;;5032591;28;20037;-86
2022/08/18 07:34:50;;;;;;;11.50;6.25;;;27.00;90.70;;;;;;5029770;28;20041;-83
2022/08/18 07:37:33;;;;;;;19.88;6.28;;;27.00;90.90;;;;;;5011799;28;20029;-82
2022/08/18 07:40:37;;;;;;;8.93;5.60;;;27.20;90.80;;;;;;5025804;28;20430;-86
2022/08/18 07:43:13;;;;;;;14.80;5.93;;;27.60;90.50;;;;;;4974692;28;20065;-85
2022/08/18 07:45:44;;;;;;;12.55;5.57;;;27.90;89.50;;;;;;5024528;28;20037;-85
2022/08/18 07:48:20;;;;;;;13.93;6.47;;;28.00;88.90;;;;;;5024299;28;20036;-85
2022/08/18 07:50:46;;;;;;;12.48;6.20;;;27.90;88.90;;;;;;5007334;28;20030;-86
2022/08/18 07:53:34;;;;;;;14.93;5.45;;;27.90;88.60;;;;;;5007630;28;20052;-84
2022/08/18 07:56:15;;;;;;;11.38;6.30;;;27.90;88.80;;;;;;5011064;28;20036;-85
2022/08/18 07:59:13;;;;;;;9.40;6.10;;;27.80;88.80;;;;;;5007904;28;20030;-83
2022/08/18 08:01:48;;;;;;;13.23;6.28;;;27.90;89.20;;;;;;5020737;28;20057;-87
2022/08/18 08:04:28;;;;;;;8.50;5.18;;;28.10;88.40;;;;;;4999041;28;20112;-85
2022/08/18 08:07:09;;;;;;;14.13;6.57;;;28.30;87.60;;;;;;5008458;28;20058;-84
2022/08/18 08:09:56;;;;;;;10.68;6.03;;;28.20;87.40;;;;;;4998210;28;20054;-87
2022/08/18 08:12:29;;;;;;;12.43;6.50;;;28.30;87.50;;;;;;5024596;28;20045;-87
2022/08/18 08:15:22;;;;;;;14.73;6.70;;;28.30;87.50;;;;;;5025196;28;20037;-88
2022/08/18 08:18:20;;;;;;;12.63;7.35;;;28.40;86.80;;;;;;4983171;28;20045;-87
2022/08/18 08:21:03;;;;;;;15.15;5.78;;;28.50;86.90;;;;;;4995336;28;20038;-86
2022/08/18 08:23:37;;;;;;;12.50;5.45;;;28.50;86.80;;;;;;5016966;28;20022;-84
2022/08/18 08:26:03;;;;;;;;;;;28.70;86.30;;;;;;5018836;28;20040;-84
2022/08/18 08:28:43;;;;;;;10.65;5.82;;;28.70;86.20;;;;;;5035091;28;19933;-84
2022/08/18 08:31:41;;;;;;;11.48;5.75;;;28.90;85.30;;;;;;5031512;28;20041;-86
2022/08/18 08:34:30;;;;;;;15.63;6.20;;;28.90;85.00;;;;;;5015126;28;20397;-84
2022/08/18 08:37:08;;;;;;;9.85;6.10;;;28.90;84.80;;;;;;5033288;28;20050;-85
2022/08/18 08:39:53;;;;;;;11.57;5.15;;;29.10;84.50;;;;;;5032090;28;20038;-87
2022/08/18 08:42:59;;;;;;;14.52;6.22;;;29.10;84.60;;;;;;5032532;28;20065;-84
2022/08/18 08:45:27;;;;;;;17.00;6.18;;;29.40;84.30;;;;;;4980215;28;20101;-89
2022/08/18 08:48:24;;;;;;;19.05;5.97;;;29.20;84.20;;;;;;5019367;28;20052;-85
2022/08/18 08:51:11;;;;;;;12.45;5.93;;;29.30;84.10;;;;;;5019133;28;20065;-87
2022/08/18 08:53:38;;;;;;;13.25;5.68;;;29.40;83.90;;;;;;5000695;28;20093;-84
2022/08/18 08:56:13;;;;;;;13.60;6.10;;;29.50;83.60;;;;;;5000186;28;20034;-88
2022/08/18 08:58:52;;;;;;;11.90;5.93;;;29.70;82.90;;;;;;5002068;28;20042;-87
2022/08/18 09:01:27;;;;;;;12.63;6.22;;;30.00;82.40;;;;;;5016034;28;20085;-88
2022/08/18 09:04:13;;;;;;;10.50;5.70;;;30.20;81.60;;;;;;5035598;28;20033;-88
2022/08/18 09:06:57;;;;;;;14.18;6.38;;;30.10;81.40;;;;;;5030998;28;20084;-89
2022/08/18 09:10:06;;;;;;;13.10;7.00;;;30.10;81.50;;;;;;5014151;28;20049;-86
2022/08/18 09:13:17;;;;;;;14.98;6.53;;;30.30;81.80;;;;;;5033148;28;20037;-87
2022/08/18 09:16:09;;;;;;;13.27;6.53;;;30.30;81.10;;;;;;5012989;28;20041;-88
2022/08/18 09:19:12;;;;;;;12.93;5.88;;;30.30;81.40;;;;;;5003966;28;20046;-87
2022/08/18 09:21:43;;;;;;;10.75;5.82;;;30.40;81.60;;;;;;5015150;28;20038;-84
2022/08/18 09:24:22;;;;;;;10.73;6.88;;;30.50;80.60;;;;;;5037733;28;20025;-82
2022/08/18 09:27:12;;;;;;;14.50;6.53;;;30.80;80.40;;;;;;5034825;28;20026;-87
2022/08/18 09:29:38;;;;;;;16.73;6.57;;;31.10;79.70;;;;;;5016397;28;20085;-88
2022/08/18 09:32:19;;;;;;;12.90;6.43;;;31.70;78.30;;;;;;5036293;28;20029;-85
2022/08/18 09:35:09;;;;;;;15.85;6.05;;;32.10;77.10;;;;;;5017823;28;20047;-86
2022/08/18 09:44:20;;;;;;;8.95;5.97;;;33.90;72.80;;;;;;5015648;28;20071;-87
2022/08/18 09:46:51;;;;;;;10.80;6.13;;;34.20;72.20;;;;;;5027152;28;20073;-86
2022/08/18 09:49:26;;;;;;;11.07;5.78;;;35.50;70.20;;;;;;5029137;28;20030;-89
2022/08/18 09:52:19;;;;;;;9.32;5.85;;;36.20;68.80;;;;;;5028838;28;20072;-88
2022/08/18 09:54:57;;;;;;;16.83;5.35;;;36.00;67.70;;;;;;5013118;28;20037;-85
2022/08/18 09:57:31;;;;;;;10.23;4.93;;;36.50;67.10;;;;;;5011130;28;20042;-86
2022/08/18 10:00:03;;;;;;;11.13;5.40;;;37.70;65.40;;;;;;5027262;28;20021;-89
2022/08/18 10:02:35;;;;;;;14.35;5.65;;;38.40;63.50;;;;;;5011115;28;20034;-88
2022/08/18 10:05:17;;;;;;;17.63;5.47;;;38.30;62.00;;;;;;5028015;28;20053;-86
2022/08/18 10:08:15;;;;;;;12.57;5.50;;;38.30;61.70;;;;;;5026432;28;20030;-87
2022/08/18 10:10:56;;;;;;;11.25;5.40;;;38.60;61.30;;;;;;5010285;28;20084;-86
2022/08/18 10:13:50;;;;;;;8.43;4.93;;;39.20;60.50;;;;;;5028439;28;20026;-87
2022/08/18 10:16:40;;;;;;;18.13;5.73;;;40.10;58.40;;;;;;5031555;28;20026;-86
2022/08/18 10:19:44;;;;;;;10.20;5.07;;;40.30;57.70;;;;;;5026966;28;20086;-86
2022/08/18 10:22:10;;;;;;;10.32;4.88;;;39.90;58.00;;;;;;4996625;28;20064;-86
2022/08/18 10:24:43;;;;;;;11.35;4.93;;;38.90;58.40;;;;;;5030747;28;20085;-85
2022/08/18 10:27:13;;;;;;;;;;;39.20;58.10;;;;;;5033205;28;20081;-85
2022/08/18 10:29:48;;;;;;;20.27;6.32;;;39.30;57.70;;;;;;5040904;28;19893;-86
2022/08/18 10:32:14;;;;;;;17.00;6.57;;;38.70;58.20;;;;;;5059034;28;20040;-84
2022/08/18 10:34:42;;;;;;;14.65;5.35;;;38.40;58.70;;;;;;5018147;28;20022;-87
2022/08/18 10:37:50;;;;;;;13.55;5.70;;;38.40;58.70;;;;;;5008559;28;20030;-85
2022/08/18 10:40:21;;;;;;;11.65;5.78;;;38.90;57.90;;;;;;5007567;28;20037;-88
2022/08/18 10:42:59;;;;;;;12.40;4.93;;;38.90;57.70;;;;;;5010998;28;20097;-86
2022/08/18 10:45:33;;;;;;;10.80;4.88;;;40.10;56.90;;;;;;5010882;28;20045;-87
2022/08/18 10:48:17;;;;;;;18.90;4.93;;;40.80;55.80;;;;;;5013238;28;20041;-86
2022/08/18 10:50:58;;;;;;;12.52;4.70;;;41.30;55.00;;;;;;5015975;28;20084;-86
2022/08/18 10:53:49;;;;;;;11.50;5.30;;;41.40;54.40;;;;;;5013114;28;20177;-87
2022/08/18 10:56:32;;;;;;;13.63;4.60;;;41.90;53.90;;;;;;4992633;28;20058;-86
2022/08/18 10:59:28;;;;;;;8.67;4.80;;;42.30;53.60;;;;;;5013520;28;20045;-86
2022/08/18 11:02:35;;;;;;;7.18;4.18;;;42.80;52.70;;;;;;5012995;28;20098;-86
2022/08/18 11:05:08;;;;;;;9.35;4.70;;;43.30;51.90;;;;;;5013143;28;20018;-87
2022/08/18 11:07:34;;;;;;;13.13;5.03;;;44.80;50.70;;;;;;5012528;28;20069;-89
2022/08/18 11:10:16;;;;;;;9.35;4.15;;;45.70;49.50;;;;;;5015838;28;20018;-89
2022/08/18 11:13:00;;;;;;;10.70;5.03;;;45.20;49.40;;;;;;5017106;28;20038;-85
2022/08/18 11:15:54;;;;;;;11.23;4.68;;;44.90;49.40;;;;;;5016103;28;20034;-87
2022/08/18 11:18:33;;;;;;;9.43;4.25;;;44.80;49.40;;;;;;5016673;28;20018;-87
2022/08/18 11:21:41;;;;;;;12.55;5.05;;;45.20;48.80;;;;;;5017422;23;20073;-81
2022/08/18 11:24:14;;;;;;;7.00;4.40;;;45.00;48.40;;;;;;4996314;28;20054;-80
2022/08/18 11:26:45;;;;;;;10.70;4.47;;;45.60;48.00;;;;;;5002048;28;20037;-81
2022/08/18 11:29:33;;;;;;;9.02;4.60;;;45.70;47.60;;;;;;5000147;28;20034;-80
2022/08/18 11:32:07;;;;;;;11.88;4.47;;;46.00;46.90;;;;;;4990596;28;20050;-82
2022/08/18 11:34:59;;;;;;;7.95;4.40;;;45.60;47.00;;;;;;4980664;28;20066;-80
2022/08/18 11:37:40;;;;;;;13.05;4.57;;;46.20;46.20;;;;;;4972400;28;20035;-80
2022/08/18 11:40:33;;;;;;;7.00;3.83;;;45.00;45.90;;;;;;4981539;28;20075;-80
2022/08/18 11:43:08;;;;;;;7.75;4.40;;;44.80;45.90;;;;;;4972609;28;20047;-80
2022/08/18 11:45:43;;;;;;;7.70;4.75;;;44.90;46.10;;;;;;4968998;28;20030;-82
2022/08/18 11:48:18;;;;;;;11.57;4.70;;;45.30;46.10;;;;;;4980927;28;20027;-80
2022/08/18 11:51:00;;;;;;;11.52;3.90;;;45.20;45.90;;;;;;4962822;28;20038;-82
2022/08/18 11:53:38;;;;;;;12.52;4.22;;;46.30;45.70;;;;;;4966579;28;20034;-80
2022/08/18 11:56:14;;;;;;;13.13;3.80;;;47.60;44.80;;;;;;4982716;28;20022;-81
2022/08/18 11:58:54;;;;;;;9.82;4.45;;;48.10;44.40;;;;;;4982656;28;20077;-81
2022/08/18 12:01:31;;;;;;;9.57;4.18;;;46.90;44.50;;;;;;4985399;28;20035;-82
2022/08/18 12:04:07;;;;;;;9.48;4.47;;;46.80;44.80;;;;;;4987323;28;20407;-80
2022/08/18 12:06:34;;;;;;;11.68;4.30;;;47.20;44.60;;;;;;4970671;28;20118;-80
2022/08/18 12:09:05;;;;;;;9.93;4.40;;;47.80;44.00;;;;;;4985655;28;20051;-82
2022/08/18 12:11:35;;;;;;;12.10;4.18;;;48.30;43.50;;;;;;4966548;28;20030;-80
2022/08/18 12:14:15;;;;;;;8.18;3.85;;;48.30;42.80;;;;;;4982652;28;20023;-80
2022/08/18 12:16:42;;;;;;;14.60;4.78;;;47.90;43.00;;;;;;4983573;28;20022;-82
2022/08/18 12:19:11;;;;;;;17.10;4.68;;;48.30;43.10;;;;;;4982360;28;20034;-80
2022/08/18 12:21:51;;;;;;;9.02;4.45;;;48.70;42.90;;;;;;4950446;28;20057;-81
2022/08/18 12:24:30;;;;;;;14.52;4.40;;;48.30;42.80;;;;;;4985873;28;20082;-79
2022/08/18 12:26:57;;;;;;;12.77;4.00;;;47.30;43.60;;;;;;4999676;28;20031;-80
2022/08/18 12:29:24;;;;;;;16.67;4.05;;;47.40;43.40;;;;;;4998799;28;20107;-79
2022/08/18 12:31:52;;;;;;;11.75;3.97;;;47.20;43.30;;;;;;4997185;28;20019;-79
2022/08/18 12:34:19;;;;;;;14.23;4.28;;;46.80;43.10;;;;;;4970823;28;20471;-82
2022/08/18 12:36:45;;;;;;;9.65;4.18;;;46.20;43.70;;;;;;4967812;28;20051;-81
2022/08/18 12:39:12;;;;;;;12.57;4.15;;;46.00;44.50;;;;;;4967622;28;20027;-82
2022/08/18 12:41:38;;;;;;;13.20;4.63;;;46.30;43.90;;;;;;4983840;28;20026;-81
2022/08/18 12:44:04;;;;;;;8.90;4.05;;;46.80;43.70;;;;;;4966457;28;20019;-81
2022/08/18 12:46:30;;;;;;;9.05;3.90;;;47.60;43.30;;;;;;4981182;28;20035;-82
2022/08/18 12:48:56;;;;;;;14.93;4.43;;;48.20;42.90;;;;;;4968639;28;20054;-82
2022/08/18 12:51:22;;;;;;;13.43;4.15;;;48.30;42.70;;;;;;4980889;28;20094;-80
2022/08/18 12:53:48;;;;;;;11.27;4.22;;;48.70;42.30;;;;;;4979593;28;20019;-82
2022/08/18 12:56:29;;;;;;;11.65;3.92;;;48.70;42.10;;;;;;4963225;28;20039;-81
2022/08/18 12:58:55;;;;;;;9.82;3.80;;;48.30;42.30;;;;;;4980607;28;20062;-83
2022/08/18 13:01:23;;;;;;;11.77;4.03;;;48.70;42.20;;;;;;4949181;28;20038;-83
2022/08/18 13:03:52;;;;;;;12.10;4.45;;;49.00;41.90;;;;;;4982021;28;20034;-81
2022/08/18 13:06:18;;;;;;;11.43;4.18;;;48.80;41.60;;;;;;4984759;28;20042;-81
2022/08/18 13:08:44;;;;;;;9.85;4.03;;;48.60;41.60;;;;;;4989196;28;20031;-81
2022/08/18 13:11:11;;;;;;;9.45;4.00;;;48.40;41.60;;;;;;4986191;28;20019;-81
2022/08/18 13:13:38;;;;;;;12.18;3.45;;;48.40;41.60;;;;;;4979592;28;20031;-82
2022/08/18 13:16:07;;;;;;;9.18;3.80;;;47.90;41.70;;;;;;4981373;28;20027;-81
2022/08/18 13:18:34;;;;;;;14.27;4.13;;;47.70;41.60;;;;;;4972910;28;20030;-86
2022/08/18 13:21:02;;;;;;;11.93;4.13;;;47.20;42.20;;;;;;4981826;28;20155;-85
2022/08/18 13:23:29;;;;;;;13.43;3.88;;;47.00;42.40;;;;;;4969900;28;20046;-85
2022/08/18 13:25:58;;;;;;;13.15;3.85;;;46.80;42.10;;;;;;4982815;28;20093;-86
2022/08/18 13:28:23;;;;;;;15.15;3.70;;;46.00;42.10;;;;;;4962312;28;20027;-81
2022/08/18 13:30:49;;;;;;;12.52;3.60;;;45.60;42.50;;;;;;4960453;28;20081;-80
2022/08/18 13:33:18;;;;;;;9.68;3.20;;;45.80;42.80;;;;;;4959920;28;20030;-81